Rockwood, ME

2:14 AM EDT on September 02, 2014 (GMT -0400)
Tomhegan Twp | Change Station
CLOSE
Current Station
Personal Weather Station
Location: Rockwood, ME
Elevation: 1056 ft
Nearby Weather Stations

Elev 1056 ft 45.77 °N, 69.79 °W | Updated 4 seconds ago

Mostly Cloudy
Mostly Cloudy
61.4 °F
Feels Like 61.4 °F
N
0.0
Wind Variable Wind from SSW
Gusts 2.0 mph

Today
High -- | Low -- °F
--% Chance of Precip.
Yesterday
High -- | Low -- °F
Precip. -- in
6:01 AM 7:15 PM
Waxing Crescent, 48% visible
Pressure 29.94 in
Visibility 1.8 miles
Clouds Overcast 200 ft
Dew Point 60 °F
Humidity 95%
Rainfall 0.00 in
Snow Depth Not available.
UV 0 out of 12
Pollen 4.30 out of 12
Air Quality Not available.
Flu Activity Not available.
SPECI KMLT 020601Z AUTO 00000KT 1 3/4SM BR OVC002 19/18 A2994 RMK AO2 T01940183 $

More Conditions Fewer Conditions

Pressure 29.94 in
Visibility 1.8 miles
Clouds Overcast 200 ft
Dew Point 60 °F
Humidity 95%
Rainfall 0.00 in
Snow Depth Not available.
UV 0 out of 12
Pollen 4.30 out of 12
Air Quality Not available.
Flu Activity Not available.
SPECI KMLT 020601Z AUTO 00000KT 1 3/4SM BR OVC002 19/18 A2994 RMK AO2 T01940183 $

More Conditions Fewer Conditions

10-Day Weather Forecast

Almanac

Astronomy

Sep. 02, 2014 Rise Set
Actual Time 6:01 AM EDT 7:15 PM EDT
Civil Twilight 5:30 AM EDT 7:45 PM EDT
Nautical Twilight 4:53 AM EDT 8:22 PM EDT
Astronomical Twilight 4:14 AM EDT 9:01 PM EDT
Moon 2:03 PM EDT 11:44 PM EDT
Length of Visible Light 14h 14m
Length of Day
13h 13m
Tomorrow will be 3m 6s shorter.
Waxing Crescent, 48% of the Moon is Illuminated
Today
Waxing Crescent
Sep 2
First Quarter
Sep 8
Full
Sep 15
Last Quarter
Sep 24
New

Today's Extremes

State Highs State Lows

Community

WunderPhotos

Upload Photos

1,749,581 photos uploaded!

WunderBlogs® & News

Nearby

Air Quality

  Air Quality AQ Index Pollutant
Tuesday Good
OZONE
Tuesday Good
PM2.5
Wednesday Good
OZONE
Wednesday Good
PM2.5

Snow Depth

Station Depth Elevation
No new snow has been reported.

Earthquake Activity

City Distance Mag. Time & Date
No recent earthquake activity has been reported nearby.
Minimum magnitude displayed is 2.5.

Coastal Water Temperatures

Place Temperature
No Stations Reporting

Nearby Weather Stations